FranceFixed distance
Luchon Aneto Trail - L'Ultra Lat
5–6 Jul2025
Distance
85km
Finishers
247220 men27 women
Winning time
9:42:00h
Median pace
5.48km/h
Pace distribution
247 finishers · 4.35–8.76 km/h · mean 5.62
Every finisher ran the same 85 km course, so these paces are directly comparable.
Histogram of finisher pace. 247 finishers ranged from 4.35 to 8.76 kilometres per hour, with a mean of 5.62 and a median of 5.48. The busiest band is 5.0 to 5.5 kilometres per hour, with 68 finishers.
Results
Ranks 151–200 of 247
| Rank | Runner | Time | Pace | Cat. | Placing |
|---|---|---|---|---|---|
| 151 | AB Trail | 15:58:42h | 5.32 | W45 | 13th F · 3rd W45 |
| 152 | Titoulouse | 15:59:01h | 5.32 | M50 | 139th M · 8th M50 |
| 153 | DCA | 16:06:40h | 5.28 | M45 | 140th M · 17th M45 |
| 154 | Stade Toulousain Athle... | 16:06:57h | 5.27 | M45 | 141st M · 18th M45 |
| 155 | *Pau | 16:07:33h | 5.27 | M40 | 142nd M · 30th M40 |
| 156 | les Sportuaires | 16:12:27h | 5.24 | M40 | 143rd M · 31st M40 |
| 157 | Athle 632 | 16:14:52h | 5.23 | W45 | 14th F · 4th W45 |
| 158 | Shelby Company Limited | 16:15:57h | 5.23 | M40 | 144th M · 32nd M40 |
| 159 | Team Trail D Elitres | 16:16:39h | 5.22 | M40 | 145th M · 33rd M40 |
| 160 | *Castres | 16:18:41h | 5.21 | W23 | 15th F · 6th W23 |
| 161 | *Cugnaux | 16:20:30h | 5.20 | M40 | 146th M · 34th M40 |
| 162 | Grand Angouleme Athlet... | 16:21:55h | 5.19 | W55 | 16th F · 1st W55 |
| 163 | SL US Marmande Athletisme | 16:23:31h | 5.18 | M35 | 147th M · 29th M35 |
| 164 | les Barjots des Cotos | 16:23:36h | 5.18 | M55 | 148th M · 5th M55 |
| 165 | les Traileurs du Marensin | 16:24:21h | 5.18 | M50 | 149th M · 9th M50 |
| 166 | *Vic-Fezensac | 16:24:22h | 5.18 | — | 150th M |
| 167 | Chicken Run | 16:26:35h | 5.17 | M40 | 151st M · 35th M40 |
| 168 | CAP Montas | 16:27:05h | 5.17 | M40 | 152nd M · 36th M40 |
| 169 | *Toulouse | 16:27:19h | 5.17 | M40 | 153rd M · 37th M40 |
| 170 | Tarahumaras | 16:29:49h | 5.15 | W40 | 17th F · 4th W40 |
| 171 | *Vallet | 16:29:50h | 5.15 | M50 | 154th M · 10th M50 |
| 172 | S/L Moutiers les Mauxf... | 16:29:57h | 5.15 | M40 | 155th M · 38th M40 |
| 173 | Lavaur | 16:31:26h | 5.14 | M40 | 156th M · 39th M40 |
| 174 | *Lalande De Pomerol | 16:34:26h | 5.13 | M45 | 157th M · 19th M45 |
| 175 | *Reignac Sur Indre | 16:35:50h | 5.12 | M45 | 158th M · 20th M45 |
| 176 | *Merignac | 16:37:25h | 5.11 | M50 | 159th M · 11th M50 |
| 177 | *Toulouse | 16:37:46h | 5.11 | M45 | 160th M · 21st M45 |
| 178 | Patatrail Luchon | 16:38:10h | 5.11 | M55 | 161st M · 6th M55 |
| 178 | Esprit Trail Landais | 16:38:10h | 5.11 | M40 | 161st M · 40th M40 |
| 180 | *Meschers-Sur-Gironde | 16:41:35h | 5.09 | M23 | 163rd M · 43rd M23 |
| 181 | Lille Skyrunning | 16:46:56h | 5.07 | M40 | 164th M · 41st M40 |
| 182 | *Sendets | 16:47:07h | 5.06 | W55 | 18th F · 2nd W55 |
| 182 | *Loubajac | 16:47:07h | 5.06 | M35 | 165th M · 30th M35 |
| 184 | *Bayonne | 16:53:31h | 5.03 | W23 | 19th F · 7th W23 |
| 185 | Mutavie | 16:53:40h | 5.03 | M45 | 166th M · 22nd M45 |
| 186 | Trailers Moncoutant | 16:54:41h | 5.03 | M35 | 167th M · 31st M35 |
| 187 | *Casson | 16:58:44h | 5.01 | M50 | 168th M · 12th M50 |
| 188 | *Samatan | 16:59:32h | 5.00 | — | 169th M |
| 188 | *Talence | 16:59:32h | 5.00 | M45 | 169th M · 23rd M45 |
| 190 | Patatrail Luchon | 17:01:29h | 4.99 | W35 | 20th F · 1st W35 |
| 190 | Patatrail Luchon | 17:01:29h | 4.99 | M23 | 171st M · 44th M23 |
| 192 | les Run'ARS | 17:04:30h | 4.98 | M50 | 172nd M · 13th M50 |
| 193 | L’Élan Girouardais | 17:09:16h | 4.96 | M23 | 173rd M · 45th M23 |
| 194 | *Saint-Hilaire | 17:11:02h | 4.95 | M23 | 174th M · 46th M23 |
| 195 | *Castres | 17:11:28h | 4.94 | — | 175th M |
| 196 | Team Picolo | 17:14:47h | 4.93 | M35 | 176th M · 32nd M35 |
| 197 | *Cepet | 17:23:38h | 4.89 | — | 177th M |
| 198 | Club Suze | 17:24:14h | 4.88 | M40 | 178th M · 42nd M40 |
| 199 | Raidapte | 17:25:34h | 4.88 | M45 | 179th M · 24th M45 |
| 200 | Patatrail Luchon | 17:25:55h | 4.88 | M65 | 180th M · 1st M65 |
- 151AB Trail13th F · 3rd W45Time15:58:42hPace5.32Cat.W45
- 152Titoulouse139th M · 8th M50Time15:59:01hPace5.32Cat.M50
- 153DCA140th M · 17th M45Time16:06:40hPace5.28Cat.M45
- 154Stade Toulousain Athle...141st M · 18th M45Time16:06:57hPace5.27Cat.M45
- 155*Pau142nd M · 30th M40Time16:07:33hPace5.27Cat.M40
- 156les Sportuaires143rd M · 31st M40Time16:12:27hPace5.24Cat.M40
- 157Athle 63214th F · 4th W45Time16:14:52hPace5.23Cat.W45
- 158Shelby Company Limited144th M · 32nd M40Time16:15:57hPace5.23Cat.M40
- 159Team Trail D Elitres145th M · 33rd M40Time16:16:39hPace5.22Cat.M40
- 160*Castres15th F · 6th W23Time16:18:41hPace5.21Cat.W23
- 161*Cugnaux146th M · 34th M40Time16:20:30hPace5.20Cat.M40
- 162Grand Angouleme Athlet...16th F · 1st W55Time16:21:55hPace5.19Cat.W55
- 163SL US Marmande Athletisme147th M · 29th M35Time16:23:31hPace5.18Cat.M35
- 164les Barjots des Cotos148th M · 5th M55Time16:23:36hPace5.18Cat.M55
- 165les Traileurs du Marensin149th M · 9th M50Time16:24:21hPace5.18Cat.M50
- 166*Vic-Fezensac150th MTime16:24:22hPace5.18
- 167Chicken Run151st M · 35th M40Time16:26:35hPace5.17Cat.M40
- 168CAP Montas152nd M · 36th M40Time16:27:05hPace5.17Cat.M40
- 169*Toulouse153rd M · 37th M40Time16:27:19hPace5.17Cat.M40
- 170Tarahumaras17th F · 4th W40Time16:29:49hPace5.15Cat.W40
- 171*Vallet154th M · 10th M50Time16:29:50hPace5.15Cat.M50
- 172S/L Moutiers les Mauxf...155th M · 38th M40Time16:29:57hPace5.15Cat.M40
- 173Lavaur156th M · 39th M40Time16:31:26hPace5.14Cat.M40
- 174*Lalande De Pomerol157th M · 19th M45Time16:34:26hPace5.13Cat.M45
- 175*Reignac Sur Indre158th M · 20th M45Time16:35:50hPace5.12Cat.M45
- 176*Merignac159th M · 11th M50Time16:37:25hPace5.11Cat.M50
- 177*Toulouse160th M · 21st M45Time16:37:46hPace5.11Cat.M45
- 178Patatrail Luchon161st M · 6th M55Time16:38:10hPace5.11Cat.M55
- 178Esprit Trail Landais161st M · 40th M40Time16:38:10hPace5.11Cat.M40
- 180*Meschers-Sur-Gironde163rd M · 43rd M23Time16:41:35hPace5.09Cat.M23
- 181Lille Skyrunning164th M · 41st M40Time16:46:56hPace5.07Cat.M40
- 182*Sendets18th F · 2nd W55Time16:47:07hPace5.06Cat.W55
- 182*Loubajac165th M · 30th M35Time16:47:07hPace5.06Cat.M35
- 184*Bayonne19th F · 7th W23Time16:53:31hPace5.03Cat.W23
- 185Mutavie166th M · 22nd M45Time16:53:40hPace5.03Cat.M45
- 186Trailers Moncoutant167th M · 31st M35Time16:54:41hPace5.03Cat.M35
- 187*Casson168th M · 12th M50Time16:58:44hPace5.01Cat.M50
- 188*Samatan169th MTime16:59:32hPace5.00
- 188*Talence169th M · 23rd M45Time16:59:32hPace5.00Cat.M45
- 190Patatrail Luchon20th F · 1st W35Time17:01:29hPace4.99Cat.W35
- 190Patatrail Luchon171st M · 44th M23Time17:01:29hPace4.99Cat.M23
- 192les Run'ARS172nd M · 13th M50Time17:04:30hPace4.98Cat.M50
- 193L’Élan Girouardais173rd M · 45th M23Time17:09:16hPace4.96Cat.M23
- 194*Saint-Hilaire174th M · 46th M23Time17:11:02hPace4.95Cat.M23
- 195*Castres175th MTime17:11:28hPace4.94
- 196Team Picolo176th M · 32nd M35Time17:14:47hPace4.93Cat.M35
- 197*Cepet177th MTime17:23:38hPace4.89
- 198Club Suze178th M · 42nd M40Time17:24:14hPace4.88Cat.M40
- 199Raidapte179th M · 24th M45Time17:25:34hPace4.88Cat.M45
- 200Patatrail Luchon180th M · 1st M65Time17:25:55hPace4.88Cat.M65
Showing ranks 151–200 of 247